Lingwood, United Kingdom
Current Conditions -  °F | °C
As of 1:20 PM on Friday 28 Nov 2014 (Local Time) from EGSD Reporting Station
Scattered Clouds Scattered Clouds  
Wind Chill: 52°   Ceiling: Unl
Heat Index: 52°   Visibility: 4mi
Dew Point: 50°   Wind: 12mph
Humidity: 94%   Direction: 90°E
Pressure: 29.68"   Gusts: NA
Location:  52.62°N, 1.49°E
Report Text: EGSD 281320Z 09010KT 6000 FEW005 SCT030 11/10 Q1005
Loading
Personal Weather Stations






























Interactive Weather Map New forecast layout! Learn more

10-Day Weather Forecast

Advertisements
Track Severe Weather on mobile